Terminal Aerodrome Forecast
Issued by NWS Amarillo, TX

Home | Current Version | Previous Version | Text Only | Print | Product List | Glossary On
Versions: 1 2 3 4 5 6 7 8 9 10 11 12 13 14 15 16 17 18 19 20 21
000
FTUS44 KAMA 290832 AAA
TAFAMA
TAF AMD
KAMA 290832Z 2909/3006 03020G30KT 3SM -SHRA BR OVC005
      TEMPO 2909/2911 04030G40KT 1SM TSRA BR OVC002CB
     FM291100 01020G30KT 1SM -SHRA OVC004
     FM292000 34019G29KT P6SM -SHRA OVC010=

USA.gov is the U.S. government's official web portal to all federal, state and local government web resources and services.